Flight Track Log - Related Links

Times and Time Zones

All times are in EDT time to prevent confusion due to time zone crossing. See the TRS672 flight status page for this flight to view local times or setup timezone preferences in your user account.

Time Position Orientation Groundspeed Altitude Reporting Facility
EDT Latitude Longitude Course Direction KTS MPH feet Rate Location/Type
Sat 10:05:32 AM 39.1833 -76.7167 288° West 181 208 2,600  Level Potomac TRACON
Sat 10:06:32 AM 39.2000 -76.7833 288° West 211 243 4,000 1,950 Climbing Potomac TRACON
Sat 10:07:32 AM 39.2167 -76.8833 282° West 267 307 6,500 2,700 Climbing Potomac TRACON
Sat 10:08:32 AM 39.2500 -76.9667 297° West 264 304 9,400 2,500 Climbing Potomac TRACON
Sat 10:09:32 AM 39.2833 -77.0500 297° West 277 319 11,500 1,537 Climbing Potomac TRACON
Sat 10:10:33 AM 39.3167 -77.1667 290° West 341 392 12,500 1,388 Climbing Potomac TRACON
Sat 10:11:33 AM 39.3500 -77.2833 290° West 375 432 14,300 1,816 Climbing Potomac TRACON
Sat 10:13:05 AM 39.4178 -77.4747 295° West 385 443 17,100 1,680 Climbing Washington Center
Sat 10:14:03 AM 39.4614 -77.6050 293° West 391 450 18,500 1,525 Climbing Washington Center
Sat 10:15:03 AM 39.5050 -77.7433 292° West 407 468 20,100 1,438 Climbing Washington Center
Sat 10:16:04 AM 39.5361 -77.8544 290° West 407 468 21,400 1,426 Climbing Washington Center
Sat 10:17:05 AM 39.5872 -78.0203 292° West 413 475 23,000 1,041 Climbing Washington Center
Sat 10:18:05 AM 39.6319 -78.1675 292° West 418 481 23,500 458 Climbing Washington Center
Sat 10:19:16 AM 39.6867 -78.3547 291° West 443 510 24,000 595 Climbing Cleveland Center
Sat 10:20:16 AM 39.7314 -78.5044 291° West 443 510 24,800 1,050 Climbing Cleveland Center
Sat 10:21:16 AM 39.7756 -78.6492 292° West 443 510 26,100 1,150 Climbing Cleveland Center
Sat 10:22:16 AM 39.8156 -78.8019 289° West 443 510 27,100 1,000 Climbing Cleveland Center
Sat 10:23:16 AM 39.8575 -78.9550 290° West 443 510 28,100 950 Climbing Cleveland Center
Sat 10:24:16 AM 39.9011 -79.0919 293° West 448 516 29,000 850 Climbing Cleveland Center
Sat 10:25:16 AM 39.9447 -79.2428 291° West 448 516 29,800 900 Climbing Cleveland Center
Sat 10:26:16 AM 39.9942 -79.3961 293° West 448 516 30,800 1,100 Climbing Cleveland Center
Sat 10:27:16 AM 40.0622 -79.5306 304° West 448 516 32,000 600 Climbing Cleveland Center
Sat 10:28:16 AM 40.1303 -79.6597 305° West 443 510 32,000  Level Cleveland Center
Sat 10:29:16 AM 40.2000 -79.7947 304° West 443 510 32,000  Level Cleveland Center
Sat 10:30:16 AM 40.2675 -79.9275 304° West 443 510 32,000  Level Cleveland Center
Sat 10:31:16 AM 40.3411 -80.0819 302° West 438 504 32,000  Level Cleveland Center
Sat 10:32:16 AM 40.4083 -80.2178 303° West 449 517 32,000  Level Cleveland Center
Sat 10:33:16 AM 40.4756 -80.3539 303° West 449 517 32,000  Level Cleveland Center
Sat 10:34:16 AM 40.5508 -80.4903 306° West 455 524 32,000  Level Cleveland Center
Sat 10:35:16 AM 40.6153 -80.6297 301° West 455 524 32,000  Level Cleveland Center
Sat 10:36:16 AM 40.6861 -80.7611 305° West 449 517 32,000 -50 Level Cleveland Center
Sat 10:37:16 AM 40.7547 -80.8983 303° West 449 517 31,900 -500 Descending Cleveland Center
Sat 10:38:16 AM 40.8189 -81.0358 302° West 449 517 31,000 -450 Descending Cleveland Center
Sat 10:39:16 AM 40.8767 -81.1597 302° West 442 509 31,000  Level Cleveland Center
Sat 10:40:16 AM 40.9425 -81.2950 303° West 442 509 31,000  Level Cleveland Center
Sat 10:41:16 AM 41.0083 -81.4333 302° West 442 509 31,000 -850 Level Cleveland Center
Sat 10:42:16 AM 41.0719 -81.5692 302° West 442 509 29,300 -2,300 Descending Cleveland Center
Sat 10:43:16 AM 41.1456 -81.7081 305° West 435 501 26,400 -1,650 Descending Cleveland Center
Sat 10:44:16 AM 41.2067 -81.8389 302° West 423 487 26,000 -200 Descending Cleveland Center
Sat 10:45:16 AM 41.2739 -81.9756 303° West 429 494 26,000  Level Cleveland Center
Sat 10:46:16 AM 41.3389 -82.1153 302° West 436 502 26,000  Level Cleveland Center
Sat 10:47:16 AM 41.4036 -82.2497 303° West 456 525 26,000  Level Cleveland Center
Sat 10:48:16 AM 41.4789 -82.3875 306° West 462 532 26,000  Level Cleveland Center
Sat 10:49:16 AM 41.5517 -82.5225 306° West 462 532 26,000  Level Cleveland Center
Sat 10:50:16 AM 41.6283 -82.6639 306° West 467 537 26,000  Level Cleveland Center
Sat 10:51:16 AM 41.7008 -82.8025 305° West 467 537 26,000  Level Cleveland Center
Sat 10:52:16 AM 41.7753 -82.9414 306° West 467 537 26,000  Level Cleveland Center
Sat 10:53:16 AM 41.8494 -83.0808 306° West 462 532 26,000  Level Cleveland Center
Sat 10:54:16 AM 41.9292 -83.2375 304° West 462 532 26,000 -500 Level Cleveland Center
Sat 10:55:16 AM 42.0031 -83.3747 306° West 462 532 25,000 -1,000 Descending Cleveland Center
Sat 10:56:16 AM 42.0683 -83.5175 302° West 457 526 24,000 -500 Descending Cleveland Center
Sat 10:57:16 AM 42.1150 -83.6428 297° West 438 504 24,000 -350 Level Cleveland Center
Sat 10:58:16 AM 42.1694 -83.7911 296° West 433 498 23,300 -1,850 Descending Cleveland Center
Sat 10:59:16 AM 42.2217 -83.9311 297° West 433 498 20,300 -2,500 Descending Cleveland Center
Sat 11:00:16 AM 42.2739 -84.0686 297° West 428 493 18,300 -2,050 Descending Cleveland Center
Sat 11:01:16 AM 42.3278 -84.2178 296° West 417 480 16,200 -1,100 Descending Cleveland Center
Sat 11:02:16 AM 42.3778 -84.3500 297° West 412 474 16,100 -550 Descending Cleveland Center
Sat 11:03:16 AM 42.4253 -84.4878 295° West 407 468 15,100 -1,000 Descending Cleveland Center
Sat 11:04:16 AM 42.4811 -84.6181 300° West 402 463 14,100 -1,029 Descending Cleveland Center
Sat 11:05:01 AM 42.5178 -84.6922 304° West 389 448 13,300 -1,009 Descending Chicago Center
Sat 11:06:03 AM 42.5719 -84.8122 302° West 377 434 12,300 -976 Descending Chicago Center
Sat 11:07:04 AM 42.6203 -84.9253 300° West 354 407 11,300 -1,268 Descending Chicago Center
Sat 11:08:06 AM 42.6836 -85.0281 310° West 301 346 9,700 -1,790 Descending Chicago Center
Sat 11:09:08 AM 42.7364 -85.1033 314° West 282 325 7,600 -1,610 Descending Chicago Center
Sat 11:10:09 AM 42.7886 -85.1714 316° Northwest 268 308 6,400 -1,366 Descending Chicago Center
Sat 11:11:11 AM 42.8386 -85.2272 321° Northwest 241 277 4,800 -1,317 Descending Chicago Center
Sat 11:12:12 AM 42.8847 -85.2847 318° Northwest 229 264 3,700 -829 Descending Chicago Center
Sat 11:13:14 AM 42.8989 -85.3444 288° West 185 213 3,100 -677 Descending Chicago Center
Sat 11:14:16 AM 42.8933 -85.3972 262° West 157 181 2,300 -732 Descending Chicago Center
Sat 11:15:17 AM 42.8869 -85.4486 260° West 145 167 1,600 -683 Descending Chicago Center
Sat 11:16:19 AM 42.8811 -85.4997 261° West 139 160 900 -677 Descending Chicago Center

Login

Don't have an account? Register now (free) for customized features, flight alerts, and more!